Snow/Ice From: 16-12-2017 16:00 Until: 17-12-2017 16:00 warning for: Snow/Ice Level: Yellow info button

Although rather usual in this region, locally or potentially dangerous phenomena are expected. (such as local winds, summer thunderstorms, rising streams or high waves) Be aware and pay attention to the latest weather updates, especially if you carry out activities exposed to weather or close to a stream or shoreline. 


Meteo18 Weather Cam more information Meteo18 Weather Cam


Thunder radar more information blitzortung!


warning for Snow/Ice more information rain snow radar


Visit our other weather sites:

Template documentation
and downloads

And another site



Weather Underground History page Text

Daily Summary for May 12, 2017 Units:  Both    English   Metric
« Previous Day
Next Day »
Daily Weekly Monthly Yearly Custom
  High: Low: Average:
Temperature: 69.3 °F /  20.7 °C 45.7 °F /  7.6 °C 56.3 °F /  13.5 °C
Dew Point: 59.4 °F /  15.2 °C 45 °F /  7.2 °C 53.1 °F /  11.7 °C
Humidity: 97 % 60 % 90 %
Wind Speed: 14 mph /  22.5 km/h - 1.4 mph /  2.2 km/h
Wind Gust: 14 mph /  22.5 km/h - -
Wind:- - SSE
Pressure: 29.8 in /  1009.0 hPa 29.5 in /  999.9 hPa -
Precipitation: 0.33 in /  8.4 mm    
Historical Graphs
 
 
Tabular Data for May 12, 2017
Time Temperature Dew Point Pressure Wind Wind Speed Wind Gust Humidity Rainfall Rate (Hourly)
00:02 54.3 °F /  12.4 °C 53.2 °F /  11.8 °C 29.5 in /  999.9 hPa SSW 1 mph /  1.6 km/h 3 mph /  4.8 km/h 96 % 0.03 in /  0.8 mm
00:12 54.1 °F /  12.3 °C 53.1 °F /  11.7 °C 29.5 in /  999.9 hPa Calm   3 mph /  4.8 km/h 96 % 0.03 in /  0.8 mm
00:17 54 °F /  12.2 °C 52.9 °F /  11.6 °C 29.5 in /  1000.2 hPa Calm   2 mph /  3.2 km/h 96 % 0.03 in /  0.8 mm
00:22 53.8 °F /  12.1 °C 52.7 °F /  11.5 °C 29.5 in /  1000.2 hPa Calm   2 mph /  3.2 km/h 96 % 0.03 in /  0.8 mm
00:27 53.8 °F /  12.1 °C 52.7 °F /  11.5 °C 29.5 in /  1000.2 hPa Calm     96 % 0.03 in /  0.8 mm
00:32 53.8 °F /  12.1 °C 52.7 °F /  11.5 °C 29.5 in /  1000.2 hPa Calm     96 % 0.03 in /  0.8 mm
00:42 53.4 °F /  11.9 °C 52.3 °F /  11.3 °C 29.6 in /  1000.6 hPa Calm     96 % 0 in /  0.0 mm
00:47 53.1 °F /  11.7 °C 52 °F /  11.1 °C 29.6 in /  1000.6 hPa Calm     96 % 0 in /  0.0 mm
00:52 52.3 °F /  11.3 °C 50.9 °F /  10.5 °C 29.6 in /  1000.6 hPa Calm   2 mph /  3.2 km/h 95 % 0 in /  0.0 mm
00:57 51.8 °F /  11.0 °C 50.4 °F /  10.2 °C 29.6 in /  1000.6 hPa Calm   2 mph /  3.2 km/h 95 % 0 in /  0.0 mm
01:02 51.6 °F /  10.9 °C 50.5 °F /  10.3 °C 29.6 in /  1000.6 hPa Calm   2 mph /  3.2 km/h 96 % 0 in /  0.0 mm
01:12 51.6 °F /  10.9 °C 50.5 °F /  10.3 °C 29.6 in /  1000.6 hPa Calm   1 mph /  1.6 km/h 96 % 0 in /  0.0 mm
01:17 51.6 °F /  10.9 °C 50.5 °F /  10.3 °C 29.6 in /  1000.6 hPa Calm     96 % 0 in /  0.0 mm
01:22 51.4 °F /  10.8 °C 50.4 °F /  10.2 °C 29.6 in /  1000.6 hPa Calm     96 % 0 in /  0.0 mm
01:27 51.3 °F /  10.7 °C 50.2 °F /  10.1 °C 29.6 in /  1000.6 hPa Calm     96 % 0 in /  0.0 mm
01:32 51.3 °F /  10.7 °C 50.2 °F /  10.1 °C 29.6 in /  1000.6 hPa Calm     96 % 0 in /  0.0 mm
01:37 51.4 °F /  10.8 °C 50.5 °F /  10.3 °C 29.6 in /  1000.6 hPa Calm   1 mph /  1.6 km/h 97 % 0 in /  0.0 mm
01:42 51.6 °F /  10.9 °C 50.7 °F /  10.4 °C 29.6 in /  1000.9 hPa Calm   1 mph /  1.6 km/h 97 % 0 in /  0.0 mm
01:47 51.4 °F /  10.8 °C 50.4 °F /  10.2 °C 29.6 in /  1000.9 hPa Calm   1 mph /  1.6 km/h 96 % 0 in /  0.0 mm
01:52 51.4 °F /  10.8 °C 50.5 °F /  10.3 °C 29.6 in /  1000.9 hPa Calm   1 mph /  1.6 km/h 97 % 0 in /  0.0 mm
01:57 51.4 °F /  10.8 °C 50.5 °F /  10.3 °C 29.6 in /  1000.9 hPa Calm     97 % 0 in /  0.0 mm
02:02 51.4 °F /  10.8 °C 50.5 °F /  10.3 °C 29.6 in /  1000.9 hPa Calm     97 % 0 in /  0.0 mm
02:12 51.3 °F /  10.7 °C 50.2 °F /  10.1 °C 29.6 in /  1001.2 hPa Calm     96 % 0 in /  0.0 mm
02:17 50.7 °F /  10.4 °C 49.6 °F /  9.8 °C 29.6 in /  1000.9 hPa ESE 1 mph /  1.6 km/h   96 % 0 in /  0.0 mm
02:22 50.2 °F /  10.1 °C 49.1 °F /  9.5 °C 29.6 in /  1000.9 hPa Calm   2 mph /  3.2 km/h 96 % 0 in /  0.0 mm
02:27 49.6 °F /  9.8 °C 48.6 °F /  9.2 °C 29.6 in /  1000.9 hPa Calm   2 mph /  3.2 km/h 96 % 0 in /  0.0 mm
02:32 49.3 °F /  9.6 °C 48.2 °F /  9.0 °C 29.6 in /  1000.9 hPa Calm   2 mph /  3.2 km/h 96 % 0 in /  0.0 mm
02:37 48.9 °F /  9.4 °C 47.8 °F /  8.8 °C 29.6 in /  1001.2 hPa Calm     96 % 0 in /  0.0 mm
02:42 49.3 °F /  9.6 °C 48.4 °F /  9.1 °C 29.6 in /  1000.9 hPa Calm     97 % 0 in /  0.0 mm
02:47 48.9 °F /  9.4 °C 47.8 °F /  8.8 °C 29.6 in /  1001.2 hPa Calm     96 % 0 in /  0.0 mm
02:52 48.6 °F /  9.2 °C 47.5 °F /  8.6 °C 29.6 in /  1001.2 hPa Calm     96 % 0 in /  0.0 mm
02:57 48.6 °F /  9.2 °C 47.5 °F /  8.6 °C 29.6 in /  1001.2 hPa Calm     96 % 0 in /  0.0 mm
03:02 48.4 °F /  9.1 °C 47.5 °F /  8.6 °C 29.6 in /  1001.2 hPa Calm     97 % 0 in /  0.0 mm
03:12 48.4 °F /  9.1 °C 47.5 °F /  8.6 °C 29.6 in /  1001.2 hPa Calm     97 % 0 in /  0.0 mm
03:17 48.4 °F /  9.1 °C 47.5 °F /  8.6 °C 29.6 in /  1001.2 hPa Calm     97 % 0.01 in /  0.3 mm
03:22 48.4 °F /  9.1 °C 47.5 °F /  8.6 °C 29.6 in /  1001.2 hPa Calm     97 % 0.01 in /  0.3 mm
03:27 48.6 °F /  9.2 °C 47.7 °F /  8.7 °C 29.6 in /  1001.2 hPa Calm     97 % 0.01 in /  0.3 mm
03:32 48.7 °F /  9.3 °C 47.8 °F /  8.8 °C 29.6 in /  1001.2 hPa Calm     97 % 0.01 in /  0.3 mm
03:37 48.4 °F /  9.1 °C 47.5 °F /  8.6 °C 29.6 in /  1001.2 hPa Calm     97 % 0.01 in /  0.3 mm
03:42 48.4 °F /  9.1 °C 47.5 °F /  8.6 °C 29.6 in /  1001.2 hPa Calm     97 % 0.01 in /  0.3 mm
03:47 48.4 °F /  9.1 °C 47.5 °F /  8.6 °C 29.6 in /  1001.2 hPa Calm     97 % 0.01 in /  0.3 mm
03:52 48.2 °F /  9.0 °C 47.3 °F /  8.5 °C 29.6 in /  1001.6 hPa Calm     97 % 0.01 in /  0.3 mm
03:57 48.4 °F /  9.1 °C 47.5 °F /  8.6 °C 29.6 in /  1001.6 hPa Calm     97 % 0.01 in /  0.3 mm
04:02 48.2 °F /  9.0 °C 47.3 °F /  8.5 °C 29.6 in /  1001.6 hPa Calm     97 % 0.01 in /  0.3 mm
04:07 48 °F /  8.9 °C 47.1 °F /  8.4 °C 29.6 in /  1001.6 hPa Calm     97 % 0.01 in /  0.3 mm
04:17 47.7 °F /  8.7 °C 46.9 °F /  8.3 °C 29.6 in /  1001.6 hPa Calm     97 % 0 in /  0.0 mm
04:22 47.5 °F /  8.6 °C 46.8 °F /  8.2 °C 29.6 in /  1001.6 hPa Calm     97 % 0 in /  0.0 mm
04:32 47.5 °F /  8.6 °C 46.8 °F /  8.2 °C 29.6 in /  1001.6 hPa Calm     97 % 0 in /  0.0 mm
04:42 47.5 °F /  8.6 °C 46.8 °F /  8.2 °C 29.6 in /  1001.6 hPa Calm     97 % 0 in /  0.0 mm
04:47 47.5 °F /  8.6 °C 46.8 °F /  8.2 °C 29.6 in /  1001.6 hPa Calm     97 % 0 in /  0.0 mm
04:52 47.1 °F /  8.4 °C 46.4 °F /  8.0 °C 29.6 in /  1001.6 hPa Calm     97 % 0 in /  0.0 mm
04:57 47.5 °F /  8.6 °C 46.8 °F /  8.2 °C 29.6 in /  1001.6 hPa Calm     97 % 0 in /  0.0 mm
05:02 47.3 °F /  8.5 °C 46.6 °F /  8.1 °C 29.6 in /  1001.6 hPa Calm     97 % 0 in /  0.0 mm
05:12 46.8 °F /  8.2 °C 46 °F /  7.8 °C 29.6 in /  1001.9 hPa Calm     97 % 0 in /  0.0 mm
05:17 46.6 °F /  8.1 °C 45.9 °F /  7.7 °C 29.6 in /  1001.9 hPa Calm     97 % 0 in /  0.0 mm
05:22 46.8 °F /  8.2 °C 46 °F /  7.8 °C 29.6 in /  1001.9 hPa Calm     97 % 0 in /  0.0 mm
05:27 46.9 °F /  8.3 °C 46.2 °F /  7.9 °C 29.6 in /  1001.9 hPa Calm     97 % 0 in /  0.0 mm
05:32 46.6 °F /  8.1 °C 45.9 °F /  7.7 °C 29.6 in /  1001.9 hPa Calm     97 % 0 in /  0.0 mm
05:37 46.4 °F /  8.0 °C 45.7 °F /  7.6 °C 29.6 in /  1001.9 hPa Calm     97 % 0 in /  0.0 mm
05:42 46.2 °F /  7.9 °C 45.5 °F /  7.5 °C 29.6 in /  1001.9 hPa Calm     97 % 0 in /  0.0 mm
05:47 46.2 °F /  7.9 °C 45.5 °F /  7.5 °C 29.6 in /  1001.9 hPa Calm     97 % 0 in /  0.0 mm
05:52 45.9 °F /  7.7 °C 45.1 °F /  7.3 °C 29.6 in /  1001.9 hPa Calm     97 % 0 in /  0.0 mm
05:57 45.7 °F /  7.6 °C 45 °F /  7.2 °C 29.6 in /  1001.9 hPa Calm     97 % 0 in /  0.0 mm
06:02 46 °F /  7.8 °C 45.3 °F /  7.4 °C 29.6 in /  1001.9 hPa Calm     97 % 0 in /  0.0 mm
06:07 46.2 °F /  7.9 °C 45.5 °F /  7.5 °C 29.6 in /  1001.9 hPa Calm     97 % 0 in /  0.0 mm
06:12 46 °F /  7.8 °C 45.3 °F /  7.4 °C 29.6 in /  1001.9 hPa Calm     97 % 0 in /  0.0 mm
06:17 45.7 °F /  7.6 °C 45 °F /  7.2 °C 29.6 in /  1001.9 hPa Calm     97 % 0 in /  0.0 mm
06:22 45.7 °F /  7.6 °C 45 °F /  7.2 °C 29.6 in /  1001.9 hPa Calm     97 % 0 in /  0.0 mm
06:32 46.4 °F /  8.0 °C 45.7 °F /  7.6 °C 29.6 in /  1001.9 hPa Calm     97 % 0 in /  0.0 mm
06:42 46 °F /  7.8 °C 45.3 °F /  7.4 °C 29.6 in /  1001.9 hPa Calm     97 % 0 in /  0.0 mm
06:52 46.2 °F /  7.9 °C 45.5 °F /  7.5 °C 29.6 in /  1002.3 hPa Calm     97 % 0 in /  0.0 mm
06:57 47.3 °F /  8.5 °C 46.6 °F /  8.1 °C 29.6 in /  1002.3 hPa Calm     97 % 0 in /  0.0 mm
07:02 48 °F /  8.9 °C 47.1 °F /  8.4 °C 29.6 in /  1002.3 hPa Calm     97 % 0 in /  0.0 mm
07:07 48.7 °F /  9.3 °C 47.8 °F /  8.8 °C 29.6 in /  1002.3 hPa Calm     97 % 0 in /  0.0 mm
07:12 49.3 °F /  9.6 °C 48.4 °F /  9.1 °C 29.6 in /  1002.3 hPa Calm     97 % 0 in /  0.0 mm
07:17 49.6 °F /  9.8 °C 48.7 °F /  9.3 °C 29.6 in /  1002.3 hPa Calm     97 % 0 in /  0.0 mm
07:22 48.6 °F /  9.2 °C 47.1 °F /  8.4 °C 29.6 in /  1002.3 hPa Calm     95 % 0 in /  0.0 mm
07:27 48.4 °F /  9.1 °C 47.3 °F /  8.5 °C 29.6 in /  1002.6 hPa Calm     96 % 0 in /  0.0 mm
07:32 48.9 °F /  9.4 °C 47.8 °F /  8.8 °C 29.6 in /  1002.6 hPa Calm     96 % 0 in /  0.0 mm
07:37 49.3 °F /  9.6 °C 48.2 °F /  9.0 °C 29.6 in /  1002.6 hPa Calm     96 % 0 in /  0.0 mm
07:42 49.8 °F /  9.9 °C 48.9 °F /  9.4 °C 29.6 in /  1002.6 hPa Calm     97 % 0 in /  0.0 mm
07:52 51.4 °F /  10.8 °C 50.5 °F /  10.3 °C 29.6 in /  1002.6 hPa Calm     97 % 0 in /  0.0 mm
08:02 52.5 °F /  11.4 °C 51.4 °F /  10.8 °C 29.6 in /  1002.9 hPa Calm     96 % 0 in /  0.0 mm
08:12 52.5 °F /  11.4 °C 51.4 °F /  10.8 °C 29.6 in /  1002.6 hPa Calm     96 % 0 in /  0.0 mm
08:17 52.9 °F /  11.6 °C 51.8 °F /  11.0 °C 29.6 in /  1002.9 hPa Calm     96 % 0 in /  0.0 mm
08:22 53.2 °F /  11.8 °C 52.2 °F /  11.2 °C 29.6 in /  1002.6 hPa Calm     96 % 0 in /  0.0 mm
08:27 53.1 °F /  11.7 °C 51.6 °F /  10.9 °C 29.6 in /  1002.6 hPa Calm     95 % 0 in /  0.0 mm
08:32 53.6 °F /  12.0 °C 52.5 °F /  11.4 °C 29.6 in /  1002.9 hPa South 2 mph /  3.2 km/h   96 % 0 in /  0.0 mm
08:37 54.1 °F /  12.3 °C 53.1 °F /  11.7 °C 29.6 in /  1002.9 hPa SSW 1 mph /  1.6 km/h 3 mph /  4.8 km/h 96 % 0 in /  0.0 mm
08:42 54.3 °F /  12.4 °C 52.9 °F /  11.6 °C 29.6 in /  1002.9 hPa SW 1 mph /  1.6 km/h 3 mph /  4.8 km/h 95 % 0 in /  0.0 mm
08:47 54.5 °F /  12.5 °C 53.1 °F /  11.7 °C 29.6 in /  1002.9 hPa SSW 2 mph /  3.2 km/h 4 mph /  6.4 km/h 95 % 0 in /  0.0 mm
08:57 55.2 °F /  12.9 °C 53.8 °F /  12.1 °C 29.6 in /  1002.9 hPa SSE 1 mph /  1.6 km/h 4 mph /  6.4 km/h 95 % 0 in /  0.0 mm
09:02 55.8 °F /  13.2 °C 54.3 °F /  12.4 °C 29.6 in /  1002.9 hPa SSE 2 mph /  3.2 km/h 4 mph /  6.4 km/h 95 % 0 in /  0.0 mm
09:07 55.9 °F /  13.3 °C 54.3 °F /  12.4 °C 29.6 in /  1002.9 hPa SSW 1 mph /  1.6 km/h 4 mph /  6.4 km/h 94 % 0 in /  0.0 mm
09:12 56.3 °F /  13.5 °C 54.7 °F /  12.6 °C 29.6 in /  1002.9 hPa ESE 1 mph /  1.6 km/h 4 mph /  6.4 km/h 94 % 0 in /  0.0 mm
09:17 56.3 °F /  13.5 °C 54.3 °F /  12.4 °C 29.6 in /  1002.9 hPa Calm   4 mph /  6.4 km/h 93 % 0 in /  0.0 mm
09:22 56.5 °F /  13.6 °C 54.5 °F /  12.5 °C 29.6 in /  1002.9 hPa South 1 mph /  1.6 km/h 4 mph /  6.4 km/h 93 % 0 in /  0.0 mm
09:32 56.7 °F /  13.7 °C 54.7 °F /  12.6 °C 29.6 in /  1002.9 hPa SW 1 mph /  1.6 km/h 3 mph /  4.8 km/h 93 % 0 in /  0.0 mm
09:37 56.7 °F /  13.7 °C 54.3 °F /  12.4 °C 29.6 in /  1002.9 hPa SE 2 mph /  3.2 km/h 5 mph /  8.0 km/h 92 % 0 in /  0.0 mm
09:42 56.7 °F /  13.7 °C 54.3 °F /  12.4 °C 29.6 in /  1003.3 hPa SSW 3 mph /  4.8 km/h 5 mph /  8.0 km/h 92 % 0 in /  0.0 mm
09:47 56.7 °F /  13.7 °C 54.3 °F /  12.4 °C 29.6 in /  1003.3 hPa Calm   5 mph /  8.0 km/h 92 % 0 in /  0.0 mm
09:52 56.8 °F /  13.8 °C 54.5 °F /  12.5 °C 29.6 in /  1003.3 hPa Calm   5 mph /  8.0 km/h 92 % 0 in /  0.0 mm
09:57 57 °F /  13.9 °C 54.7 °F /  12.6 °C 29.6 in /  1003.3 hPa WSW 1 mph /  1.6 km/h 6 mph /  9.7 km/h 92 % 0 in /  0.0 mm
10:02 57.2 °F /  14.0 °C 54.7 °F /  12.6 °C 29.6 in /  1003.3 hPa SSE 3 mph /  4.8 km/h 6 mph /  9.7 km/h 91 % 0 in /  0.0 mm
10:12 57.7 °F /  14.3 °C 54.9 °F /  12.7 °C 29.6 in /  1003.3 hPa SSW 2 mph /  3.2 km/h 7 mph /  11.3 km/h 90 % 0 in /  0.0 mm
10:17 57.9 °F /  14.4 °C 55 °F /  12.8 °C 29.6 in /  1003.6 hPa SSE 2 mph /  3.2 km/h 6 mph /  9.7 km/h 90 % 0 in /  0.0 mm
10:22 58.1 °F /  14.5 °C 54.9 °F /  12.7 °C 29.6 in /  1003.6 hPa SSW 3 mph /  4.8 km/h 6 mph /  9.7 km/h 89 % 0 in /  0.0 mm
10:27 58.3 °F /  14.6 °C 55 °F /  12.8 °C 29.6 in /  1003.6 hPa SSE 4 mph /  6.4 km/h 6 mph /  9.7 km/h 89 % 0 in /  0.0 mm
10:32 57.9 °F /  14.4 °C 54.7 °F /  12.6 °C 29.6 in /  1003.9 hPa SE 2 mph /  3.2 km/h 6 mph /  9.7 km/h 89 % 0 in /  0.0 mm
10:37 57.6 °F /  14.2 °C 54.7 °F /  12.6 °C 29.6 in /  1003.9 hPa SSE 3 mph /  4.8 km/h 5 mph /  8.0 km/h 90 % 0.02 in /  0.5 mm
10:42 57.4 °F /  14.1 °C 54.9 °F /  12.7 °C 29.6 in /  1003.9 hPa Calm   5 mph /  8.0 km/h 91 % 0.02 in /  0.5 mm
10:47 57 °F /  13.9 °C 54.5 °F /  12.5 °C 29.6 in /  1003.9 hPa SE 1 mph /  1.6 km/h 5 mph /  8.0 km/h 91 % 0.03 in /  0.8 mm
10:52 57 °F /  13.9 °C 54.7 °F /  12.6 °C 29.6 in /  1003.6 hPa SE 2 mph /  3.2 km/h 5 mph /  8.0 km/h 92 % 0.03 in /  0.8 mm
10:57 57 °F /  13.9 °C 54.7 °F /  12.6 °C 29.6 in /  1003.6 hPa Calm   5 mph /  8.0 km/h 92 % 0.03 in /  0.8 mm
11:02 57.6 °F /  14.2 °C 55.2 °F /  12.9 °C 29.6 in /  1003.6 hPa Calm   5 mph /  8.0 km/h 92 % 0.03 in /  0.8 mm
11:07 57.9 °F /  14.4 °C 55.2 °F /  12.9 °C 29.6 in /  1003.6 hPa ESE 2 mph /  3.2 km/h 5 mph /  8.0 km/h 91 % 0.03 in /  0.8 mm
11:12 58.6 °F /  14.8 °C 55.9 °F /  13.3 °C 29.6 in /  1003.6 hPa SE 4 mph /  6.4 km/h 5 mph /  8.0 km/h 91 % 0.03 in /  0.8 mm
11:22 59.7 °F /  15.4 °C 56.1 °F /  13.4 °C 29.6 in /  1003.6 hPa Calm   6 mph /  9.7 km/h 88 % 0.03 in /  0.8 mm
11:32 60.6 °F /  15.9 °C 56.7 °F /  13.7 °C 29.6 in /  1003.9 hPa SW 2 mph /  3.2 km/h 6 mph /  9.7 km/h 87 % 0.02 in /  0.5 mm
11:42 61.2 °F /  16.2 °C 56.7 °F /  13.7 °C 29.6 in /  1003.9 hPa South 2 mph /  3.2 km/h 8 mph /  12.9 km/h 85 % 0 in /  0.0 mm
11:47 61.5 °F /  16.4 °C 56.3 °F /  13.5 °C 29.6 in /  1003.9 hPa SSW 3 mph /  4.8 km/h 8 mph /  12.9 km/h 83 % 0 in /  0.0 mm
11:52 61.9 °F /  16.6 °C 56.7 °F /  13.7 °C 29.6 in /  1003.9 hPa South 1 mph /  1.6 km/h 9 mph /  14.5 km/h 83 % 0 in /  0.0 mm
11:57 62.4 °F /  16.9 °C 57.6 °F /  14.2 °C 29.6 in /  1003.9 hPa Calm   9 mph /  14.5 km/h 84 % 0 in /  0.0 mm
12:02 63.1 °F /  17.3 °C 57.6 °F /  14.2 °C 29.6 in /  1003.9 hPa South 3 mph /  4.8 km/h 9 mph /  14.5 km/h 82 % 0 in /  0.0 mm
12:12 63.5 °F /  17.5 °C 57.6 °F /  14.2 °C 29.6 in /  1003.9 hPa SSE 2 mph /  3.2 km/h 8 mph /  12.9 km/h 81 % 0 in /  0.0 mm
12:17 64.2 °F /  17.9 °C 58.6 °F /  14.8 °C 29.6 in /  1003.9 hPa ESE 3 mph /  4.8 km/h 8 mph /  12.9 km/h 82 % 0 in /  0.0 mm
12:22 63.7 °F /  17.6 °C 58.1 °F /  14.5 °C 29.6 in /  1003.9 hPa SSE 2 mph /  3.2 km/h 8 mph /  12.9 km/h 82 % 0 in /  0.0 mm
12:32 64 °F /  17.8 °C 57.7 °F /  14.3 °C 29.6 in /  1003.9 hPa West 1 mph /  1.6 km/h 7 mph /  11.3 km/h 80 % 0 in /  0.0 mm
12:42 64.6 °F /  18.1 °C 57.6 °F /  14.2 °C 29.6 in /  1003.6 hPa SE 1 mph /  1.6 km/h 8 mph /  12.9 km/h 78 % 0 in /  0.0 mm
12:47 64.6 °F /  18.1 °C 57.6 °F /  14.2 °C 29.6 in /  1003.6 hPa SSE 3 mph /  4.8 km/h 7 mph /  11.3 km/h 78 % 0 in /  0.0 mm
12:52 64.8 °F /  18.2 °C 57 °F /  13.9 °C 29.6 in /  1003.6 hPa SSW 2 mph /  3.2 km/h 8 mph /  12.9 km/h 76 % 0 in /  0.0 mm
13:02 64.6 °F /  18.1 °C 56.5 °F /  13.6 °C 29.6 in /  1003.6 hPa South 3 mph /  4.8 km/h 8 mph /  12.9 km/h 75 % 0 in /  0.0 mm
13:07 64.4 °F /  18.0 °C 55.9 °F /  13.3 °C 29.6 in /  1003.9 hPa South 4 mph /  6.4 km/h 9 mph /  14.5 km/h 74 % 0 in /  0.0 mm
13:12 64.8 °F /  18.2 °C 57.4 °F /  14.1 °C 29.6 in /  1003.6 hPa South 3 mph /  4.8 km/h 9 mph /  14.5 km/h 77 % 0 in /  0.0 mm
13:22 66.2 °F /  19.0 °C 59.2 °F /  15.1 °C 29.6 in /  1003.6 hPa SE 3 mph /  4.8 km/h 8 mph /  12.9 km/h 78 % 0 in /  0.0 mm
13:27 67.1 °F /  19.5 °C 58.5 °F /  14.7 °C 29.6 in /  1003.6 hPa SW 3 mph /  4.8 km/h 8 mph /  12.9 km/h 74 % 0 in /  0.0 mm
13:32 67.3 °F /  19.6 °C 58.3 °F /  14.6 °C 29.6 in /  1003.6 hPa SE 3 mph /  4.8 km/h 6 mph /  9.7 km/h 73 % 0 in /  0.0 mm
13:37 67.6 °F /  19.8 °C 59.4 °F /  15.2 °C 29.6 in /  1003.3 hPa NE 1 mph /  1.6 km/h 12 mph /  19.3 km/h 75 % 0 in /  0.0 mm
13:42 67.6 °F /  19.8 °C 58.6 °F /  14.8 °C 29.6 in /  1003.3 hPa East 1 mph /  1.6 km/h 12 mph /  19.3 km/h 73 % 0 in /  0.0 mm
13:47 67.5 °F /  19.7 °C 58.1 °F /  14.5 °C 29.6 in /  1003.3 hPa ESE 1 mph /  1.6 km/h 12 mph /  19.3 km/h 72 % 0 in /  0.0 mm
13:52 67.5 °F /  19.7 °C 57.4 °F /  14.1 °C 29.6 in /  1003.3 hPa SSE 2 mph /  3.2 km/h 6 mph /  9.7 km/h 70 % 0 in /  0.0 mm
13:57 68.2 °F /  20.1 °C 57.2 °F /  14.0 °C 29.6 in /  1003.3 hPa SSW 2 mph /  3.2 km/h 6 mph /  9.7 km/h 68 % 0 in /  0.0 mm
14:02 68.5 °F /  20.3 °C 58.3 °F /  14.6 °C 29.6 in /  1003.3 hPa SSW 5 mph /  8.0 km/h 6 mph /  9.7 km/h 70 % 0 in /  0.0 mm
14:07 67.6 °F /  19.8 °C 55.9 °F /  13.3 °C 29.6 in /  1003.3 hPa SW 4 mph /  6.4 km/h 7 mph /  11.3 km/h 66 % 0 in /  0.0 mm
14:12 67.5 °F /  19.7 °C 56.1 °F /  13.4 °C 29.6 in /  1003.3 hPa Calm   7 mph /  11.3 km/h 67 % 0 in /  0.0 mm
14:17 67.6 °F /  19.8 °C 56.7 °F /  13.7 °C 29.6 in /  1002.9 hPa SW 1 mph /  1.6 km/h 7 mph /  11.3 km/h 68 % 0 in /  0.0 mm
14:22 67.6 °F /  19.8 °C 57 °F /  13.9 °C 29.6 in /  1003.3 hPa South 2 mph /  3.2 km/h 6 mph /  9.7 km/h 69 % 0 in /  0.0 mm
14:27 67.6 °F /  19.8 °C 55.4 °F /  13.0 °C 29.6 in /  1002.9 hPa SW 9 mph /  14.5 km/h 11 mph /  17.7 km/h 65 % 0 in /  0.0 mm
14:32 67.3 °F /  19.6 °C 55.9 °F /  13.3 °C 29.6 in /  1002.9 hPa SSW 9 mph /  14.5 km/h 13 mph /  20.9 km/h 67 % 0 in /  0.0 mm
14:37 66.6 °F /  19.2 °C 55.2 °F /  12.9 °C 29.6 in /  1002.9 hPa WSW 4 mph /  6.4 km/h 14 mph /  22.5 km/h 67 % 0 in /  0.0 mm
14:42 66 °F /  18.9 °C 55.2 °F /  12.9 °C 29.6 in /  1002.9 hPa SW 5 mph /  8.0 km/h 14 mph /  22.5 km/h 68 % 0.01 in /  0.3 mm
14:52 67.1 °F /  19.5 °C 55.4 °F /  13.0 °C 29.6 in /  1002.9 hPa SSW 8 mph /  12.9 km/h 14 mph /  22.5 km/h 66 % 0.01 in /  0.3 mm
15:02 67.5 °F /  19.7 °C 55.2 °F /  12.9 °C 29.6 in /  1002.9 hPa SW 9 mph /  14.5 km/h 14 mph /  22.5 km/h 65 % 0.01 in /  0.3 mm
15:12 68.2 °F /  20.1 °C 53.8 °F /  12.1 °C 29.6 in /  1002.9 hPa WSW 7 mph /  11.3 km/h 13 mph /  20.9 km/h 60 % 0.01 in /  0.3 mm
15:17 68.4 °F /  20.2 °C 56.5 °F /  13.6 °C 29.6 in /  1002.9 hPa WSW 14 mph /  22.5 km/h 14 mph /  22.5 km/h 66 % 0.01 in /  0.3 mm
15:22 68.2 °F /  20.1 °C 54.7 °F /  12.6 °C 29.6 in /  1002.9 hPa WSW 11 mph /  17.7 km/h 14 mph /  22.5 km/h 62 % 0.01 in /  0.3 mm
15:32 69.3 °F /  20.7 °C 55.2 °F /  12.9 °C 29.6 in /  1002.9 hPa WSW 10 mph /  16.1 km/h 14 mph /  22.5 km/h 61 % 0.01 in /  0.3 mm
15:37 68.9 °F /  20.5 °C 55.4 °F /  13.0 °C 29.6 in /  1002.9 hPa South 3 mph /  4.8 km/h 14 mph /  22.5 km/h 62 % 0 in /  0.0 mm
15:42 68.7 °F /  20.4 °C 55.2 °F /  12.9 °C 29.6 in /  1003.3 hPa West 5 mph /  8.0 km/h 12 mph /  19.3 km/h 62 % 0 in /  0.0 mm
15:47 66.9 °F /  19.4 °C 55.2 °F /  12.9 °C 29.6 in /  1003.3 hPa WNW 3 mph /  4.8 km/h 12 mph /  19.3 km/h 66 % 0 in /  0.0 mm
15:52 64.6 °F /  18.1 °C 55.4 °F /  13.0 °C 29.6 in /  1003.3 hPa WNW 2 mph /  3.2 km/h 13 mph /  20.9 km/h 72 % 0.02 in /  0.5 mm
16:02 63 °F /  17.2 °C 55.9 °F /  13.3 °C 29.6 in /  1003.3 hPa Calm   9 mph /  14.5 km/h 78 % 0.02 in /  0.5 mm
16:12 62.4 °F /  16.9 °C 56.5 °F /  13.6 °C 29.6 in /  1003.3 hPa ENE 5 mph /  8.0 km/h 5 mph /  8.0 km/h 81 % 0.02 in /  0.5 mm
16:17 62.6 °F /  17.0 °C 57.4 °F /  14.1 °C 29.6 in /  1003.3 hPa NE 2 mph /  3.2 km/h 5 mph /  8.0 km/h 83 % 0.02 in /  0.5 mm
16:22 63 °F /  17.2 °C 56.7 °F /  13.7 °C 29.6 in /  1003.3 hPa NNE 3 mph /  4.8 km/h 7 mph /  11.3 km/h 80 % 0.02 in /  0.5 mm
16:32 63.9 °F /  17.7 °C 57.9 °F /  14.4 °C 29.6 in /  1003.3 hPa NNE 7 mph /  11.3 km/h 10 mph /  16.1 km/h 81 % 0.02 in /  0.5 mm
16:37 64 °F /  17.8 °C 57.4 °F /  14.1 °C 29.6 in /  1003.6 hPa NNE 3 mph /  4.8 km/h 10 mph /  16.1 km/h 79 % 0.02 in /  0.5 mm
16:42 64 °F /  17.8 °C 57.7 °F /  14.3 °C 29.6 in /  1003.6 hPa NE 5 mph /  8.0 km/h 10 mph /  16.1 km/h 80 % 0.02 in /  0.5 mm
16:47 63.7 °F /  17.6 °C 57.4 °F /  14.1 °C 29.6 in /  1003.6 hPa NE 8 mph /  12.9 km/h 10 mph /  16.1 km/h 80 % 0.02 in /  0.5 mm
16:52 63.1 °F /  17.3 °C 56.8 °F /  13.8 °C 29.6 in /  1003.3 hPa NE 6 mph /  9.7 km/h 11 mph /  17.7 km/h 80 % 0.01 in /  0.3 mm
16:57 63 °F /  17.2 °C 57.4 °F /  14.1 °C 29.6 in /  1003.6 hPa ENE 4 mph /  6.4 km/h 11 mph /  17.7 km/h 82 % 0.01 in /  0.3 mm
17:02 62.8 °F /  17.1 °C 57.2 °F /  14.0 °C 29.6 in /  1003.6 hPa NE 5 mph /  8.0 km/h 11 mph /  17.7 km/h 82 % 0.01 in /  0.3 mm
17:07 62.4 °F /  16.9 °C 57.2 °F /  14.0 °C 29.6 in /  1003.6 hPa ENE 4 mph /  6.4 km/h 10 mph /  16.1 km/h 83 % 0.01 in /  0.3 mm
17:12 62.2 °F /  16.8 °C 57 °F /  13.9 °C 29.6 in /  1003.6 hPa NE 3 mph /  4.8 km/h 8 mph /  12.9 km/h 83 % 0.01 in /  0.3 mm
17:17 62.1 °F /  16.7 °C 57.2 °F /  14.0 °C 29.6 in /  1003.6 hPa NNE 4 mph /  6.4 km/h 7 mph /  11.3 km/h 84 % 0.01 in /  0.3 mm
17:22 61.7 °F /  16.5 °C 56.8 °F /  13.8 °C 29.6 in /  1003.9 hPa NNE 3 mph /  4.8 km/h 7 mph /  11.3 km/h 84 % 0.01 in /  0.3 mm
17:32 61.3 °F /  16.3 °C 57.2 °F /  14.0 °C 29.6 in /  1003.9 hPa Calm   7 mph /  11.3 km/h 86 % 0.02 in /  0.5 mm
17:42 60.8 °F /  16.0 °C 55.6 °F /  13.1 °C 29.6 in /  1003.9 hPa SE 8 mph /  12.9 km/h 8 mph /  12.9 km/h 83 % 0.02 in /  0.5 mm
17:52 62.8 °F /  17.1 °C 57.6 °F /  14.2 °C 29.7 in /  1004.3 hPa Calm   12 mph /  19.3 km/h 83 % 0.03 in /  0.8 mm
18:02 63.3 °F /  17.4 °C 58.5 °F /  14.7 °C 29.7 in /  1004.3 hPa Calm   4 mph /  6.4 km/h 84 % 0.03 in /  0.8 mm
18:12 63.1 °F /  17.3 °C 58.3 °F /  14.6 °C 29.7 in /  1004.3 hPa East 1 mph /  1.6 km/h 4 mph /  6.4 km/h 84 % 0.03 in /  0.8 mm
18:17 63 °F /  17.2 °C 58.1 °F /  14.5 °C 29.7 in /  1004.3 hPa ENE 1 mph /  1.6 km/h 4 mph /  6.4 km/h 84 % 0.03 in /  0.8 mm
18:22 62.6 °F /  17.0 °C 58.1 °F /  14.5 °C 29.7 in /  1004.6 hPa East 1 mph /  1.6 km/h 4 mph /  6.4 km/h 85 % 0.03 in /  0.8 mm
18:32 62.1 °F /  16.7 °C 58.5 °F /  14.7 °C 29.7 in /  1004.6 hPa NE 3 mph /  4.8 km/h 8 mph /  12.9 km/h 88 % 0.03 in /  0.8 mm
18:37 61.5 °F /  16.4 °C 57.9 °F /  14.4 °C 29.7 in /  1004.6 hPa ESE 1 mph /  1.6 km/h 8 mph /  12.9 km/h 88 % 0.02 in /  0.5 mm
18:42 61.2 °F /  16.2 °C 57.2 °F /  14.0 °C 29.7 in /  1004.6 hPa East 3 mph /  4.8 km/h 8 mph /  12.9 km/h 87 % 0 in /  0.0 mm
18:47 60.8 °F /  16.0 °C 57.2 °F /  14.0 °C 29.7 in /  1004.6 hPa ESE 2 mph /  3.2 km/h 8 mph /  12.9 km/h 88 % 0 in /  0.0 mm
18:57 60.4 °F /  15.8 °C 57.2 °F /  14.0 °C 29.7 in /  1004.3 hPa SE 2 mph /  3.2 km/h 8 mph /  12.9 km/h 89 % 0 in /  0.0 mm
19:02 60.3 °F /  15.7 °C 57.4 °F /  14.1 °C 29.7 in /  1004.6 hPa SE 4 mph /  6.4 km/h 8 mph /  12.9 km/h 90 % 0 in /  0.0 mm
19:12 59.9 °F /  15.5 °C 56.7 °F /  13.7 °C 29.7 in /  1005.0 hPa West 2 mph /  3.2 km/h 5 mph /  8.0 km/h 89 % 0 in /  0.0 mm
19:17 59.5 °F /  15.3 °C 55.9 °F /  13.3 °C 29.7 in /  1005.0 hPa SE 3 mph /  4.8 km/h 5 mph /  8.0 km/h 88 % 0.09 in /  2.3 mm
19:22 59.4 °F /  15.2 °C 56.1 °F /  13.4 °C 29.7 in /  1005.0 hPa East 1 mph /  1.6 km/h 5 mph /  8.0 km/h 89 % 0.19 in /  4.8 mm
19:27 59 °F /  15.0 °C 56.1 °F /  13.4 °C 29.7 in /  1005.3 hPa WNW 2 mph /  3.2 km/h 5 mph /  8.0 km/h 90 % 0.2 in /  5.1 mm
19:32 58.6 °F /  14.8 °C 55.8 °F /  13.2 °C 29.7 in /  1005.3 hPa Calm   4 mph /  6.4 km/h 90 % 0.21 in /  5.3 mm
19:37 58.3 °F /  14.6 °C 55.6 °F /  13.1 °C 29.7 in /  1005.6 hPa Calm   3 mph /  4.8 km/h 91 % 0.21 in /  5.3 mm
19:42 58.1 °F /  14.5 °C 55.4 °F /  13.0 °C 29.7 in /  1005.6 hPa Calm   3 mph /  4.8 km/h 91 % 0.22 in /  5.6 mm
19:47 57.9 °F /  14.4 °C 55.2 °F /  12.9 °C 29.7 in /  1005.6 hPa East 3 mph /  4.8 km/h 3 mph /  4.8 km/h 91 % 0.23 in /  5.8 mm
19:52 57.9 °F /  14.4 °C 55.2 °F /  12.9 °C 29.7 in /  1006.0 hPa ESE 1 mph /  1.6 km/h 4 mph /  6.4 km/h 91 % 0.23 in /  5.8 mm
19:57 57.7 °F /  14.3 °C 55.4 °F /  13.0 °C 29.7 in /  1006.0 hPa East 2 mph /  3.2 km/h 4 mph /  6.4 km/h 92 % 0.23 in /  5.8 mm
20:02 57.7 °F /  14.3 °C 55.4 °F /  13.0 °C 29.7 in /  1006.0 hPa East 2 mph /  3.2 km/h 4 mph /  6.4 km/h 92 % 0.23 in /  5.8 mm
20:17 57.7 °F /  14.3 °C 55.8 °F /  13.2 °C 29.7 in /  1006.3 hPa Calm   2 mph /  3.2 km/h 93 % 0.1 in /  2.5 mm
20:27 57.6 °F /  14.2 °C 55.6 °F /  13.1 °C 29.7 in /  1006.7 hPa East 1 mph /  1.6 km/h 2 mph /  3.2 km/h 93 % 0.02 in /  0.5 mm
20:32 57.6 °F /  14.2 °C 55.6 °F /  13.1 °C 29.7 in /  1006.7 hPa ENE 1 mph /  1.6 km/h 3 mph /  4.8 km/h 93 % 0.02 in /  0.5 mm
20:37 57.6 °F /  14.2 °C 55.6 °F /  13.1 °C 29.7 in /  1006.7 hPa Calm   3 mph /  4.8 km/h 93 % 0.02 in /  0.5 mm
20:47 57.4 °F /  14.1 °C 55.4 °F /  13.0 °C 29.7 in /  1006.7 hPa East 1 mph /  1.6 km/h 3 mph /  4.8 km/h 93 % 0 in /  0.0 mm
20:52 57.4 °F /  14.1 °C 55.6 °F /  13.1 °C 29.7 in /  1006.7 hPa Calm   3 mph /  4.8 km/h 94 % 0 in /  0.0 mm
20:57 57.4 °F /  14.1 °C 55.6 °F /  13.1 °C 29.7 in /  1006.7 hPa Calm   3 mph /  4.8 km/h 94 % 0 in /  0.0 mm
21:02 57.4 °F /  14.1 °C 55.6 °F /  13.1 °C 29.7 in /  1007.0 hPa Calm   2 mph /  3.2 km/h 94 % 0 in /  0.0 mm
21:12 57.2 °F /  14.0 °C 55.4 °F /  13.0 °C 29.7 in /  1007.0 hPa Calm   2 mph /  3.2 km/h 94 % 0 in /  0.0 mm
21:17 57 °F /  13.9 °C 55.2 °F /  12.9 °C 29.7 in /  1007.0 hPa Calm   2 mph /  3.2 km/h 94 % 0 in /  0.0 mm
21:22 57 °F /  13.9 °C 55.2 °F /  12.9 °C 29.7 in /  1007.0 hPa Calm   1 mph /  1.6 km/h 94 % 0 in /  0.0 mm
21:32 57 °F /  13.9 °C 55.2 °F /  12.9 °C 29.7 in /  1007.0 hPa Calm   2 mph /  3.2 km/h 94 % 0 in /  0.0 mm
21:42 56.7 °F /  13.7 °C 55 °F /  12.8 °C 29.7 in /  1007.3 hPa Calm   1 mph /  1.6 km/h 94 % 0 in /  0.0 mm
21:52 56.5 °F /  13.6 °C 54.9 °F /  12.7 °C 29.7 in /  1007.3 hPa Calm   1 mph /  1.6 km/h 94 % 0 in /  0.0 mm
21:57 56.3 °F /  13.5 °C 54.9 °F /  12.7 °C 29.7 in /  1007.3 hPa Calm     95 % 0 in /  0.0 mm
22:02 56.1 °F /  13.4 °C 54.7 °F /  12.6 °C 29.8 in /  1007.7 hPa Calm     95 % 0 in /  0.0 mm
22:07 56.1 °F /  13.4 °C 54.7 °F /  12.6 °C 29.8 in /  1007.7 hPa Calm     95 % 0 in /  0.0 mm
22:12 55.9 °F /  13.3 °C 54.5 °F /  12.5 °C 29.8 in /  1007.7 hPa Calm     95 % 0 in /  0.0 mm
22:17 55.6 °F /  13.1 °C 54 °F /  12.2 °C 29.8 in /  1008.0 hPa Calm     94 % 0 in /  0.0 mm
22:22 55 °F /  12.8 °C 53.4 °F /  11.9 °C 29.8 in /  1008.0 hPa Calm     94 % 0 in /  0.0 mm
22:27 54.9 °F /  12.7 °C 53.4 °F /  11.9 °C 29.8 in /  1008.4 hPa Calm     95 % 0 in /  0.0 mm
22:32 54.5 °F /  12.5 °C 53.1 °F /  11.7 °C 29.8 in /  1008.4 hPa Calm     95 % 0 in /  0.0 mm
22:37 54.5 °F /  12.5 °C 53.1 °F /  11.7 °C 29.8 in /  1008.4 hPa Calm     95 % 0 in /  0.0 mm
22:42 54.7 °F /  12.6 °C 53.6 °F /  12.0 °C 29.8 in /  1008.4 hPa Calm     96 % 0 in /  0.0 mm
22:47 54.7 °F /  12.6 °C 53.2 °F /  11.8 °C 29.8 in /  1008.4 hPa Calm     95 % 0 in /  0.0 mm
22:52 54.1 °F /  12.3 °C 52.7 °F /  11.5 °C 29.8 in /  1008.4 hPa Calm   1 mph /  1.6 km/h 95 % 0 in /  0.0 mm
22:57 53.8 °F /  12.1 °C 52.3 °F /  11.3 °C 29.8 in /  1008.4 hPa Calm   1 mph /  1.6 km/h 95 % 0 in /  0.0 mm
23:02 54.1 °F /  12.3 °C 53.1 °F /  11.7 °C 29.8 in /  1008.4 hPa Calm   1 mph /  1.6 km/h 96 % 0 in /  0.0 mm
23:12 54.1 °F /  12.3 °C 53.1 °F /  11.7 °C 29.8 in /  1008.4 hPa Calm   1 mph /  1.6 km/h 96 % 0 in /  0.0 mm
23:22 54.7 °F /  12.6 °C 53.8 °F /  12.1 °C 29.8 in /  1008.7 hPa Calm     97 % 0 in /  0.0 mm
23:32 54.1 °F /  12.3 °C 53.1 °F /  11.7 °C 29.8 in /  1008.7 hPa Calm     96 % 0 in /  0.0 mm
23:37 53.8 °F /  12.1 °C 52.7 °F /  11.5 °C 29.8 in /  1008.7 hPa Calm     96 % 0 in /  0.0 mm
23:42 53.6 °F /  12.0 °C 52.5 °F /  11.4 °C 29.8 in /  1009.0 hPa Calm     96 % 0 in /  0.0 mm
23:47 53.6 °F /  12.0 °C 52.5 °F /  11.4 °C 29.8 in /  1009.0 hPa Calm     96 % 0 in /  0.0 mm
23:52 53.4 °F /  11.9 °C 52.3 °F /  11.3 °C 29.8 in /  1009.0 hPa Calm     96 % 0 in /  0.0 mm
23:57 53.2 °F /  11.8 °C 52.2 °F /  11.2 °C 29.8 in /  1009.0 hPa Calm     96 % 0 in /  0.0 mm
Meteo18
Compliments of Weather Underground - 4 mb

Script developed by  Jim McMurry - jmcmurry@mwt.net Adapted for the template by  Wim van der Kuil - Leuven-Template.eu

You find our weather info also at:

European Weather Network

Weather Underground

Equipment we use:

Weather-station
Davis Vue

Weather-program
Meteohub

Weather-server
Raspberry PI 2 B+

Provider
1 and 1

Davis Vue

Meteohub

Raspberry PI 2 B+

1 and 1